sensor_id;sensor_type;location;lat;lon;timestamp;noise_LAeq;noise_LA_min;noise_LA_max;noise_LA01;noise_LA95
37223;Laerm;28026;48.562;14.440;2023-03-17T00:00:20;39.29;35.66;41.96;;
37223;Laerm;28026;48.562;14.440;2023-03-17T00:02:51;39.37;36.20;41.75;;
37223;Laerm;28026;48.562;14.440;2023-03-17T00:05:29;39.62;36.45;42.03;;
37223;Laerm;28026;48.562;14.440;2023-03-17T00:08:27;39.89;36.45;43.49;;
37223;Laerm;28026;48.562;14.440;2023-03-17T00:10:59;39.52;34.31;44.35;;
37223;Laerm;28026;48.562;14.440;2023-03-17T00:13:30;39.52;35.36;43.24;;
37223;Laerm;28026;48.562;14.440;2023-03-17T00:16:11;40.73;35.66;47.04;;
37223;Laerm;28026;48.562;14.440;2023-03-17T00:18:45;41.92;35.94;48.45;;
37223;Laerm;28026;48.562;14.440;2023-03-17T00:21:32;39.51;35.04;42.69;;
37223;Laerm;28026;48.562;14.440;2023-03-17T00:24:09;39.83;35.36;43.29;;
37223;Laerm;28026;48.562;14.440;2023-03-17T00:26:42;41.78;35.66;53.49;;
37223;Laerm;28026;48.562;14.440;2023-03-17T00:29:13;41.37;35.36;46.13;;
37223;Laerm;28026;48.562;14.440;2023-03-17T00:31:45;40.41;35.04;43.68;;
37223;Laerm;28026;48.562;14.440;2023-03-17T00:34:18;39.90;35.36;42.29;;
37223;Laerm;28026;48.562;14.440;2023-03-17T00:36:50;39.85;35.04;42.22;;
37223;Laerm;28026;48.562;14.440;2023-03-17T00:39:21;39.32;35.66;42.98;;
37223;Laerm;28026;48.562;14.440;2023-03-17T00:41:54;39.41;35.66;42.03;;
37223;Laerm;28026;48.562;14.440;2023-03-17T00:44:25;39.44;35.66;41.82;;
37223;Laerm;28026;48.562;14.440;2023-03-17T00:46:56;39.57;35.36;41.88;;
37223;Laerm;28026;48.562;14.440;2023-03-17T00:49:27;39.43;34.69;41.61;;
37223;Laerm;28026;48.562;14.440;2023-03-17T00:51:58;40.77;35.66;44.23;;
37223;Laerm;28026;48.562;14.440;2023-03-17T00:54:29;39.82;33.90;42.82;;
37223;Laerm;28026;48.562;14.440;2023-03-17T00:57:00;39.32;34.31;42.29;;
37223;Laerm;28026;48.562;14.440;2023-03-17T00:59:40;39.47;35.66;42.03;;
37223;Laerm;28026;48.562;14.440;2023-03-17T01:02:12;39.76;35.04;47.18;;
37223;Laerm;28026;48.562;14.440;2023-03-17T01:04:44;40.25;35.36;44.65;;
37223;Laerm;28026;48.562;14.440;2023-03-17T01:07:16;39.54;35.36;42.71;;
37223;Laerm;28026;48.562;14.440;2023-03-17T01:09:47;39.81;34.69;42.98;;
37223;Laerm;28026;48.562;14.440;2023-03-17T01:12:18;39.53;34.31;41.89;;
37223;Laerm;28026;48.562;14.440;2023-03-17T01:14:49;39.64;35.36;44.51;;
37223;Laerm;28026;48.562;14.440;2023-03-17T01:17:20;39.40;35.66;44.34;;
37223;Laerm;28026;48.562;14.440;2023-03-17T01:19:51;39.87;35.94;44.19;;
37223;Laerm;28026;48.562;14.440;2023-03-17T01:22:22;39.49;34.31;42.09;;
37223;Laerm;28026;48.562;14.440;2023-03-17T01:24:54;39.49;35.66;42.09;;
37223;Laerm;28026;48.562;14.440;2023-03-17T01:27:24;39.45;35.36;42.09;;
37223;Laerm;28026;48.562;14.440;2023-03-17T01:29:55;39.24;35.36;41.75;;
37223;Laerm;28026;48.562;14.440;2023-03-17T01:32:26;39.33;35.04;41.89;;
37223;Laerm;28026;48.562;14.440;2023-03-17T01:34:58;39.24;35.66;42.29;;
37223;Laerm;28026;48.562;14.440;2023-03-17T01:37:28;39.31;34.31;41.89;;
37223;Laerm;28026;48.562;14.440;2023-03-17T01:39:59;40.69;35.36;45.94;;
37223;Laerm;28026;48.562;14.440;2023-03-17T01:42:31;40.92;36.69;44.87;;
37223;Laerm;28026;48.562;14.440;2023-03-17T01:48:17;39.27;35.36;42.29;;
37223;Laerm;28026;48.562;14.440;2023-03-17T01:50:49;39.36;35.66;54.92;;
37223;Laerm;28026;48.562;14.440;2023-03-17T01:53:22;39.46;35.66;43.86;;
37223;Laerm;28026;48.562;14.440;2023-03-17T01:55:56;39.45;34.69;42.03;;
37223;Laerm;28026;48.562;14.440;2023-03-17T01:58:28;39.52;35.36;42.06;;
37223;Laerm;28026;48.562;14.440;2023-03-17T02:01:00;39.54;34.31;43.86;;
37223;Laerm;28026;48.562;14.440;2023-03-17T02:03:31;39.73;35.36;42.41;;
37223;Laerm;28026;48.562;14.440;2023-03-17T02:06:03;39.79;35.36;42.41;;
37223;Laerm;28026;48.562;14.440;2023-03-17T02:08:36;39.77;35.36;52.32;;
37223;Laerm;28026;48.562;14.440;2023-03-17T02:11:08;39.43;35.66;42.22;;
37223;Laerm;28026;48.562;14.440;2023-03-17T02:13:40;39.31;35.04;42.41;;
37223;Laerm;28026;48.562;14.440;2023-03-17T02:16:16;39.26;35.01;42.03;;
37223;Laerm;28026;48.562;14.440;2023-03-17T02:18:47;39.45;34.69;50.42;;
37223;Laerm;28026;48.562;14.440;2023-03-17T02:21:41;39.68;35.94;43.44;;
37223;Laerm;28026;48.562;14.440;2023-03-17T02:24:52;39.71;35.36;41.96;;
37223;Laerm;28026;48.562;14.440;2023-03-17T02:27:35;39.91;36.20;50.62;;
37223;Laerm;28026;48.562;14.440;2023-03-17T02:30:16;39.68;35.36;42.29;;
37223;Laerm;28026;48.562;14.440;2023-03-17T02:32:47;40.42;36.20;45.17;;
37223;Laerm;28026;48.562;14.440;2023-03-17T02:35:18;40.92;36.10;44.94;;
37223;Laerm;28026;48.562;14.440;2023-03-17T02:37:50;39.69;35.94;51.35;;
37223;Laerm;28026;48.562;14.440;2023-03-17T02:40:21;40.78;34.31;44.43;;
37223;Laerm;28026;48.562;14.440;2023-03-17T02:42:52;39.93;35.94;42.93;;
37223;Laerm;28026;48.562;14.440;2023-03-17T02:45:23;39.98;35.94;43.97;;
37223;Laerm;28026;48.562;14.440;2023-03-17T02:47:55;42.72;38.05;45.04;;
37223;Laerm;28026;48.562;14.440;2023-03-17T02:50:28;40.76;35.94;48.48;;
37223;Laerm;28026;48.562;14.440;2023-03-17T02:52:59;40.59;36.20;44.65;;
37223;Laerm;28026;48.562;14.440;2023-03-17T02:55:30;41.07;35.94;45.54;;
37223;Laerm;28026;48.562;14.440;2023-03-17T02:58:01;40.31;36.69;43.68;;
37223;Laerm;28026;48.562;14.440;2023-03-17T03:00:33;41.92;36.20;50.46;;
37223;Laerm;28026;48.562;14.440;2023-03-17T03:03:04;39.96;35.36;43.04;;
37223;Laerm;28026;48.562;14.440;2023-03-17T03:05:35;40.46;35.66;49.96;;
37223;Laerm;28026;48.562;14.440;2023-03-17T03:08:07;39.60;35.36;44.19;;
37223;Laerm;28026;48.562;14.440;2023-03-17T03:10:39;39.81;35.94;43.86;;
37223;Laerm;28026;48.562;14.440;2023-03-17T03:13:11;39.95;35.04;45.39;;
37223;Laerm;28026;48.562;14.440;2023-03-17T03:15:42;40.94;35.04;44.94;;
37223;Laerm;28026;48.562;14.440;2023-03-17T03:18:13;41.32;36.69;44.87;;
37223;Laerm;28026;48.562;14.440;2023-03-17T03:20:45;39.70;35.36;42.93;;
37223;Laerm;28026;48.562;14.440;2023-03-17T03:23:16;40.92;35.66;44.97;;
37223;Laerm;28026;48.562;14.440;2023-03-17T03:25:48;41.54;36.45;46.13;;
37223;Laerm;28026;48.562;14.440;2023-03-17T03:28:19;41.53;36.45;44.62;;
37223;Laerm;28026;48.562;14.440;2023-03-17T03:30:50;41.57;36.45;45.97;;
37223;Laerm;28026;48.562;14.440;2023-03-17T03:33:21;43.59;39.70;51.34;;
37223;Laerm;28026;48.562;14.440;2023-03-17T03:35:52;42.86;36.69;46.95;;
37223;Laerm;28026;48.562;14.440;2023-03-17T03:38:25;40.93;36.45;44.54;;
37223;Laerm;28026;48.562;14.440;2023-03-17T03:40:56;40.77;36.69;44.69;;
37223;Laerm;28026;48.562;14.440;2023-03-17T03:43:28;42.43;38.32;45.30;;
37223;Laerm;28026;48.562;14.440;2023-03-17T03:45:59;43.23;38.95;45.99;;
37223;Laerm;28026;48.562;14.440;2023-03-17T03:48:30;41.92;36.20;46.47;;
37223;Laerm;28026;48.562;14.440;2023-03-17T03:51:02;43.50;39.70;47.38;;
37223;Laerm;28026;48.562;14.440;2023-03-17T03:53:33;41.74;37.88;44.76;;
37223;Laerm;28026;48.562;14.440;2023-03-17T03:56:04;40.49;36.91;44.39;;
37223;Laerm;28026;48.562;14.440;2023-03-17T03:58:36;41.55;36.91;54.41;;
37223;Laerm;28026;48.562;14.440;2023-03-17T04:01:09;41.96;38.21;51.39;;
37223;Laerm;28026;48.562;14.440;2023-03-17T04:03:40;42.96;39.58;51.58;;
37223;Laerm;28026;48.562;14.440;2023-03-17T04:06:11;42.99;38.05;48.87;;
37223;Laerm;28026;48.562;14.440;2023-03-17T04:08:42;41.47;36.91;46.50;;
37223;Laerm;28026;48.562;14.440;2023-03-17T04:11:12;42.32;37.88;51.96;;
37223;Laerm;28026;48.562;14.440;2023-03-17T04:13:43;42.41;36.91;46.71;;
37223;Laerm;28026;48.562;14.440;2023-03-17T04:16:14;42.41;39.34;45.25;;
37223;Laerm;28026;48.562;14.440;2023-03-17T04:18:45;41.53;37.32;46.35;;
37223;Laerm;28026;48.562;14.440;2023-03-17T04:21:16;43.13;36.56;54.88;;
37223;Laerm;28026;48.562;14.440;2023-03-17T04:23:48;42.82;38.37;52.00;;
37223;Laerm;28026;48.562;14.440;2023-03-17T04:26:19;43.53;39.46;64.37;;
37223;Laerm;28026;48.562;14.440;2023-03-17T04:28:52;43.54;40.08;51.40;;
37223;Laerm;28026;48.562;14.440;2023-03-17T04:31:24;42.49;38.95;55.15;;
37223;Laerm;28026;48.562;14.440;2023-03-17T04:33:55;41.98;37.52;51.95;;
37223;Laerm;28026;48.562;14.440;2023-03-17T04:36:26;42.62;39.21;51.17;;
37223;Laerm;28026;48.562;14.440;2023-03-17T04:38:57;42.02;38.21;46.45;;
37223;Laerm;28026;48.562;14.440;2023-03-17T04:41:28;43.38;40.03;49.82;;
37223;Laerm;28026;48.562;14.440;2023-03-17T04:43:59;42.90;38.37;48.76;;
37223;Laerm;28026;48.562;14.440;2023-03-17T04:46:31;46.22;40.03;59.58;;
37223;Laerm;28026;48.562;14.440;2023-03-17T04:49:02;42.55;38.52;50.70;;
37223;Laerm;28026;48.562;14.440;2023-03-17T04:51:33;43.97;39.34;53.40;;
37223;Laerm;28026;48.562;14.440;2023-03-17T04:54:06;41.35;36.91;48.90;;
37223;Laerm;28026;48.562;14.440;2023-03-17T04:56:38;42.81;39.46;46.73;;
37223;Laerm;28026;48.562;14.440;2023-03-17T04:59:09;43.85;38.95;58.25;;
37223;Laerm;28026;48.562;14.440;2023-03-17T05:01:41;43.11;38.81;57.35;;
37223;Laerm;28026;48.562;14.440;2023-03-17T05:04:12;44.93;38.81;54.55;;
37223;Laerm;28026;48.562;14.440;2023-03-17T05:06:43;44.96;40.43;53.34;;
37223;Laerm;28026;48.562;14.440;2023-03-17T05:09:14;42.71;39.21;48.80;;
37223;Laerm;28026;48.562;14.440;2023-03-17T05:11:44;42.39;39.08;53.18;;
37223;Laerm;28026;48.562;14.440;2023-03-17T05:14:15;43.93;39.70;53.59;;
37223;Laerm;28026;48.562;14.440;2023-03-17T05:16:48;43.49;40.53;51.34;;
37223;Laerm;28026;48.562;14.440;2023-03-17T05:19:20;42.37;39.34;49.67;;
37223;Laerm;28026;48.562;14.440;2023-03-17T05:21:50;43.11;39.46;49.68;;
37223;Laerm;28026;48.562;14.440;2023-03-17T05:24:22;43.81;38.95;52.49;;
37223;Laerm;28026;48.562;14.440;2023-03-17T05:26:52;42.71;38.52;55.89;;
37223;Laerm;28026;48.562;14.440;2023-03-17T05:29:23;45.83;39.46;66.93;;
37223;Laerm;28026;48.562;14.440;2023-03-17T05:31:54;43.31;39.34;57.64;;
37223;Laerm;28026;48.562;14.440;2023-03-17T05:34:25;42.76;38.81;51.79;;
37223;Laerm;28026;48.562;14.440;2023-03-17T05:36:56;44.72;41.14;50.83;;
37223;Laerm;28026;48.562;14.440;2023-03-17T05:39:27;43.58;40.53;47.04;;
37223;Laerm;28026;48.562;14.440;2023-03-17T05:41:58;43.79;40.13;50.19;;
37223;Laerm;28026;48.562;14.440;2023-03-17T05:44:29;43.35;40.03;62.71;;
37223;Laerm;28026;48.562;14.440;2023-03-17T05:47:00;44.29;40.80;53.01;;
37223;Laerm;28026;48.562;14.440;2023-03-17T05:49:31;43.18;39.08;46.07;;
37223;Laerm;28026;48.562;14.440;2023-03-17T05:52:02;43.50;40.13;54.90;;
37223;Laerm;28026;48.562;14.440;2023-03-17T05:54:33;43.16;39.21;57.22;;
37223;Laerm;28026;48.562;14.440;2023-03-17T05:57:04;43.21;40.23;52.62;;
37223;Laerm;28026;48.562;14.440;2023-03-17T05:59:35;42.19;38.81;49.69;;
37223;Laerm;28026;48.562;14.440;2023-03-17T06:02:06;42.97;38.95;49.25;;
37223;Laerm;28026;48.562;14.440;2023-03-17T06:04:38;45.71;42.03;68.43;;
37223;Laerm;28026;48.562;14.440;2023-03-17T06:07:09;44.17;40.98;55.14;;
37223;Laerm;28026;48.562;14.440;2023-03-17T06:09:41;44.69;41.14;58.20;;
37223;Laerm;28026;48.562;14.440;2023-03-17T06:12:13;44.62;41.38;56.87;;
37223;Laerm;28026;48.562;14.440;2023-03-17T06:14:43;44.83;41.53;53.69;;
37223;Laerm;28026;48.562;14.440;2023-03-17T06:17:14;44.01;40.71;62.80;;
37223;Laerm;28026;48.562;14.440;2023-03-17T06:19:45;44.60;41.61;56.96;;
37223;Laerm;28026;48.562;14.440;2023-03-17T06:22:16;45.23;41.75;60.46;;
37223;Laerm;28026;48.562;14.440;2023-03-17T06:24:47;44.08;41.14;58.09;;
37223;Laerm;28026;48.562;14.440;2023-03-17T06:27:18;44.86;40.98;48.98;;
37223;Laerm;28026;48.562;14.440;2023-03-17T06:29:49;46.49;42.98;56.01;;
37223;Laerm;28026;48.562;14.440;2023-03-17T06:32:20;44.24;41.38;55.73;;
37223;Laerm;28026;48.562;14.440;2023-03-17T06:34:51;43.87;41.14;48.48;;
37223;Laerm;28026;48.562;14.440;2023-03-17T06:37:23;44.67;41.14;53.99;;
37223;Laerm;28026;48.562;14.440;2023-03-17T06:39:54;44.84;41.61;56.52;;
37223;Laerm;28026;48.562;14.440;2023-03-17T06:42:26;44.13;40.80;54.56;;
37223;Laerm;28026;48.562;14.440;2023-03-17T06:44:57;44.62;40.89;56.88;;
37223;Laerm;28026;48.562;14.440;2023-03-17T06:47:29;44.14;40.98;52.77;;
37223;Laerm;28026;48.562;14.440;2023-03-17T06:50:00;45.16;40.80;54.99;;
37223;Laerm;28026;48.562;14.440;2023-03-17T06:52:31;43.83;40.53;54.57;;
37223;Laerm;28026;48.562;14.440;2023-03-17T06:55:02;45.37;41.30;55.59;;
37223;Laerm;28026;48.562;14.440;2023-03-17T06:57:34;45.32;39.08;54.49;;
37223;Laerm;28026;48.562;14.440;2023-03-17T07:00:07;45.47;41.53;51.08;;
37223;Laerm;28026;48.562;14.440;2023-03-17T07:02:39;44.78;40.33;53.57;;
37223;Laerm;28026;48.562;14.440;2023-03-17T07:05:10;43.48;40.71;49.66;;
37223;Laerm;28026;48.562;14.440;2023-03-17T07:07:42;43.38;39.81;52.09;;
37223;Laerm;28026;48.562;14.440;2023-03-17T07:10:13;44.43;40.33;51.42;;
37223;Laerm;28026;48.562;14.440;2023-03-17T07:12:45;44.44;40.71;50.70;;
37223;Laerm;28026;48.562;14.440;2023-03-17T07:15:16;43.45;39.78;58.51;;
37223;Laerm;28026;48.562;14.440;2023-03-17T07:17:48;43.88;38.67;56.20;;
37223;Laerm;28026;48.562;14.440;2023-03-17T07:20:19;45.30;41.30;55.14;;
37223;Laerm;28026;48.562;14.440;2023-03-17T07:22:50;45.31;39.81;67.64;;
37223;Laerm;28026;48.562;14.440;2023-03-17T07:25:21;44.04;40.89;50.21;;
37223;Laerm;28026;48.562;14.440;2023-03-17T07:27:53;43.64;40.33;50.59;;
37223;Laerm;28026;48.562;14.440;2023-03-17T07:30:24;43.55;40.23;50.92;;
37223;Laerm;28026;48.562;14.440;2023-03-17T07:32:56;44.88;39.34;71.06;;
37223;Laerm;28026;48.562;14.440;2023-03-17T07:35:27;43.75;39.70;51.69;;
37223;Laerm;28026;48.562;14.440;2023-03-17T07:37:58;43.18;40.62;45.94;;
37223;Laerm;28026;48.562;14.440;2023-03-17T07:40:30;45.11;40.71;66.73;;
37223;Laerm;28026;48.562;14.440;2023-03-17T07:43:01;45.31;41.22;56.60;;
37223;Laerm;28026;48.562;14.440;2023-03-17T07:45:32;43.55;40.03;50.85;;
37223;Laerm;28026;48.562;14.440;2023-03-17T07:48:06;44.68;40.62;56.43;;
37223;Laerm;28026;48.562;14.440;2023-03-17T07:50:38;43.41;40.03;51.26;;
37223;Laerm;28026;48.562;14.440;2023-03-17T07:53:09;46.35;40.03;55.63;;
37223;Laerm;28026;48.562;14.440;2023-03-17T07:55:40;44.52;40.23;50.63;;
37223;Laerm;28026;48.562;14.440;2023-03-17T07:58:12;43.40;38.21;49.27;;
37223;Laerm;28026;48.562;14.440;2023-03-17T08:00:43;44.97;40.98;53.10;;
37223;Laerm;28026;48.562;14.440;2023-03-17T08:03:14;43.88;40.80;50.40;;
37223;Laerm;28026;48.562;14.440;2023-03-17T08:05:51;42.98;39.81;47.16;;
37223;Laerm;28026;48.562;14.440;2023-03-17T08:08:26;42.82;39.21;48.18;;
37223;Laerm;28026;48.562;14.440;2023-03-17T08:11:03;42.36;38.52;58.84;;
37223;Laerm;28026;48.562;14.440;2023-03-17T08:13:34;42.52;39.08;53.60;;
37223;Laerm;28026;48.562;14.440;2023-03-17T08:16:06;42.43;38.81;49.74;;
37223;Laerm;28026;48.562;14.440;2023-03-17T08:18:37;42.97;40.13;49.06;;
37223;Laerm;28026;48.562;14.440;2023-03-17T08:21:09;42.87;38.52;52.11;;
37223;Laerm;28026;48.562;14.440;2023-03-17T08:23:40;44.38;40.62;55.35;;
37223;Laerm;28026;48.562;14.440;2023-03-17T08:26:12;43.31;39.34;52.56;;
37223;Laerm;28026;48.562;14.440;2023-03-17T08:28:44;42.86;38.81;47.77;;
37223;Laerm;28026;48.562;14.440;2023-03-17T08:31:19;42.00;38.67;49.73;;
37223;Laerm;28026;48.562;14.440;2023-03-17T08:33:53;42.25;38.67;45.51;;
37223;Laerm;28026;48.562;14.440;2023-03-17T08:36:26;42.14;37.53;48.29;;
37223;Laerm;28026;48.562;14.440;2023-03-17T08:38:58;42.34;38.67;45.45;;
37223;Laerm;28026;48.562;14.440;2023-03-17T08:41:29;42.03;38.37;51.15;;
37223;Laerm;28026;48.562;14.440;2023-03-17T08:44:00;42.44;38.67;48.13;;
37223;Laerm;28026;48.562;14.440;2023-03-17T08:46:32;42.46;38.67;45.48;;
37223;Laerm;28026;48.562;14.440;2023-03-17T08:49:03;43.79;38.95;54.75;;
37223;Laerm;28026;48.562;14.440;2023-03-17T08:51:37;53.98;37.70;70.63;;
37223;Laerm;28026;48.562;14.440;2023-03-17T08:54:08;41.97;37.88;54.14;;
37223;Laerm;28026;48.562;14.440;2023-03-17T08:56:40;42.50;38.21;56.97;;
37223;Laerm;28026;48.562;14.440;2023-03-17T08:59:11;42.56;36.91;48.95;;
37223;Laerm;28026;48.562;14.440;2023-03-17T09:01:42;41.95;38.67;45.42;;
37223;Laerm;28026;48.562;14.440;2023-03-17T09:04:15;42.83;38.05;53.93;;
37223;Laerm;28026;48.562;14.440;2023-03-17T09:06:46;41.81;37.70;50.03;;
37223;Laerm;28026;48.562;14.440;2023-03-17T09:09:17;42.24;38.52;53.19;;
37223;Laerm;28026;48.562;14.440;2023-03-17T09:11:48;41.68;38.05;46.08;;
37223;Laerm;28026;48.562;14.440;2023-03-17T09:14:19;42.21;37.12;54.55;;
37223;Laerm;28026;48.562;14.440;2023-03-17T09:16:51;42.73;38.52;49.38;;
37223;Laerm;28026;48.562;14.440;2023-03-17T09:19:22;42.96;38.52;47.84;;
37223;Laerm;28026;48.562;14.440;2023-03-17T09:21:53;41.51;37.12;54.17;;
37223;Laerm;28026;48.562;14.440;2023-03-17T09:24:24;41.43;37.70;52.50;;
37223;Laerm;28026;48.562;14.440;2023-03-17T09:26:55;42.94;37.88;53.98;;
37223;Laerm;28026;48.562;14.440;2023-03-17T09:29:29;43.85;37.70;59.78;;
37223;Laerm;28026;48.562;14.440;2023-03-17T09:32:00;41.48;36.45;49.98;;
37223;Laerm;28026;48.562;14.440;2023-03-17T09:34:31;41.97;37.70;53.64;;
37223;Laerm;28026;48.562;14.440;2023-03-17T09:37:02;41.90;36.91;55.90;;
37223;Laerm;28026;48.562;14.440;2023-03-17T09:39:33;41.82;37.12;53.58;;
37223;Laerm;28026;48.562;14.440;2023-03-17T09:42:37;40.29;35.04;54.61;;
37223;Laerm;28026;48.562;14.440;2023-03-17T09:45:40;43.36;36.45;63.19;;
37223;Laerm;28026;48.562;14.440;2023-03-17T09:48:49;41.57;37.32;53.96;;
37223;Laerm;28026;48.562;14.440;2023-03-17T09:51:28;41.36;37.52;49.19;;
37223;Laerm;28026;48.562;14.440;2023-03-17T09:54:17;41.40;35.36;54.21;;
37223;Laerm;28026;48.562;14.440;2023-03-17T09:57:05;44.68;35.94;64.75;;
37223;Laerm;28026;48.562;14.440;2023-03-17T09:59:44;41.81;37.70;50.46;;
37223;Laerm;28026;48.562;14.440;2023-03-17T10:02:29;42.51;35.94;55.15;;
37223;Laerm;28026;48.562;14.440;2023-03-17T10:17:03;43.32;35.04;61.81;;
37223;Laerm;28026;48.562;14.440;2023-03-17T10:20:29;43.17;35.66;69.20;;
37223;Laerm;28026;48.562;14.440;2023-03-17T10:23:12;42.31;36.91;64.30;;
37223;Laerm;28026;48.562;14.440;2023-03-17T10:25:44;41.80;36.45;60.39;;
37223;Laerm;28026;48.562;14.440;2023-03-17T10:28:28;41.74;35.36;58.27;;
37223;Laerm;28026;48.562;14.440;2023-03-17T10:31:32;39.91;35.59;50.04;;
37223;Laerm;28026;48.562;14.440;2023-03-17T10:34:33;42.64;35.66;64.74;;
37223;Laerm;28026;48.562;14.440;2023-03-17T10:37:19;40.74;35.04;58.42;;
37223;Laerm;28026;48.562;14.440;2023-03-17T10:39:56;41.79;35.36;50.16;;
37223;Laerm;28026;48.562;14.440;2023-03-17T10:42:31;42.05;36.69;58.77;;
37223;Laerm;28026;48.562;14.440;2023-03-17T10:45:30;42.52;36.20;59.47;;
37223;Laerm;28026;48.562;14.440;2023-03-17T10:48:07;42.44;36.91;61.64;;
37223;Laerm;28026;48.562;14.440;2023-03-17T10:50:39;41.08;35.04;56.80;;
37223;Laerm;28026;48.562;14.440;2023-03-17T10:53:24;41.33;35.04;57.94;;
37223;Laerm;28026;48.562;14.440;2023-03-17T10:56:17;39.65;35.04;49.72;;
37223;Laerm;28026;48.562;14.440;2023-03-17T10:58:53;40.26;35.04;57.15;;
37223;Laerm;28026;48.562;14.440;2023-03-17T11:01:43;42.37;36.91;59.17;;
37223;Laerm;28026;48.562;14.440;2023-03-17T11:04:34;39.49;33.44;46.80;;
37223;Laerm;28026;48.562;14.440;2023-03-17T11:07:25;43.27;36.69;56.14;;
37223;Laerm;28026;48.562;14.440;2023-03-17T11:10:01;42.76;38.05;46.05;;
37223;Laerm;28026;48.562;14.440;2023-03-17T11:12:41;41.55;35.04;54.76;;
37223;Laerm;28026;48.562;14.440;2023-03-17T11:15:16;43.26;36.69;60.02;;
37223;Laerm;28026;48.562;14.440;2023-03-17T11:20:46;40.30;35.94;51.13;;
37223;Laerm;28026;48.562;14.440;2023-03-17T11:27:05;39.34;33.44;51.39;;
37223;Laerm;28026;48.562;14.440;2023-03-17T11:30:33;41.32;33.90;58.60;;
37223;Laerm;28026;48.562;14.440;2023-03-17T11:33:22;42.50;35.94;62.37;;
37223;Laerm;28026;48.562;14.440;2023-03-17T11:36:57;48.50;33.44;74.92;;
37223;Laerm;28026;48.562;14.440;2023-03-17T11:46:08;41.75;34.69;60.48;;
37223;Laerm;28026;48.562;14.440;2023-03-17T11:54:50;40.55;32.93;53.88;;
37223;Laerm;28026;48.562;14.440;2023-03-17T11:57:57;47.62;34.69;72.75;;
37223;Laerm;28026;48.562;14.440;2023-03-17T12:00:40;43.15;35.36;56.69;;
37223;Laerm;28026;48.562;14.440;2023-03-17T12:03:50;43.27;35.36;65.55;;
37223;Laerm;28026;48.562;14.440;2023-03-17T12:06:39;51.46;34.69;75.14;;
37223;Laerm;28026;48.562;14.440;2023-03-17T12:09:26;42.75;36.20;63.44;;
37223;Laerm;28026;48.562;14.440;2023-03-17T12:12:03;43.86;37.70;62.43;;
37223;Laerm;28026;48.562;14.440;2023-03-17T12:14:50;53.52;35.04;77.75;;
37223;Laerm;28026;48.562;14.440;2023-03-17T12:17:50;64.65;36.45;85.03;;
37223;Laerm;28026;48.562;14.440;2023-03-17T12:20:48;51.41;35.36;76.31;;
37223;Laerm;28026;48.562;14.440;2023-03-17T12:23:43;44.76;35.36;64.05;;
37223;Laerm;28026;48.562;14.440;2023-03-17T12:30:01;53.58;36.69;81.99;;
37223;Laerm;28026;48.562;14.440;2023-03-17T12:32:59;45.10;35.66;65.95;;
37223;Laerm;28026;48.562;14.440;2023-03-17T12:35:36;45.78;37.32;72.39;;
37223;Laerm;28026;48.562;14.440;2023-03-17T12:38:21;75.45;36.45;89.55;;
37223;Laerm;28026;48.562;14.440;2023-03-17T12:41:16;53.84;35.04;81.67;;
37223;Laerm;28026;48.562;14.440;2023-03-17T12:47:16;52.90;37.88;76.91;;
37223;Laerm;28026;48.562;14.440;2023-03-17T12:50:49;45.27;37.87;65.37;;
37223;Laerm;28026;48.562;14.440;2023-03-17T12:53:45;50.84;37.70;76.52;;
37223;Laerm;28026;48.562;14.440;2023-03-17T12:56:30;43.70;37.12;59.86;;
37223;Laerm;28026;48.562;14.440;2023-03-17T12:59:05;50.02;34.31;72.10;;
37223;Laerm;28026;48.562;14.440;2023-03-17T13:01:44;51.51;37.52;83.81;;
37223;Laerm;28026;48.562;14.440;2023-03-17T13:04:31;45.25;35.66;69.31;;
37223;Laerm;28026;48.562;14.440;2023-03-17T13:07:10;42.77;36.91;61.90;;
37223;Laerm;28026;48.562;14.440;2023-03-17T13:23:55;49.40;36.69;72.99;;
37223;Laerm;28026;48.562;14.440;2023-03-17T13:26:55;47.49;36.91;70.45;;
37223;Laerm;28026;48.562;14.440;2023-03-17T13:35:18;46.54;35.66;71.27;;
37223;Laerm;28026;48.562;14.440;2023-03-17T13:47:36;52.63;36.20;78.81;;
37223;Laerm;28026;48.562;14.440;2023-03-17T13:50:24;49.78;32.93;71.52;;
37223;Laerm;28026;48.562;14.440;2023-03-17T13:53:06;49.69;36.69;72.54;;
37223;Laerm;28026;48.562;14.440;2023-03-17T13:56:03;53.17;35.94;79.47;;
37223;Laerm;28026;48.562;14.440;2023-03-17T13:59:20;48.54;36.69;67.80;;
37223;Laerm;28026;48.562;14.440;2023-03-17T14:02:07;46.49;34.69;68.15;;
37223;Laerm;28026;48.562;14.440;2023-03-17T14:04:58;53.81;37.32;78.86;;
37223;Laerm;28026;48.562;14.440;2023-03-17T14:07:49;43.67;36.45;65.60;;
37223;Laerm;28026;48.562;14.440;2023-03-17T14:10:28;44.27;35.36;70.80;;
37223;Laerm;28026;48.562;14.440;2023-03-17T14:16:15;43.03;35.94;71.43;;
37223;Laerm;28026;48.562;14.440;2023-03-17T14:19:10;51.28;34.31;80.72;;
37223;Laerm;28026;48.562;14.440;2023-03-17T14:21:46;50.77;34.69;72.24;;
37223;Laerm;28026;48.562;14.440;2023-03-17T14:24:31;46.72;36.69;73.20;;
37223;Laerm;28026;48.562;14.440;2023-03-17T14:27:07;48.29;37.52;75.73;;
37223;Laerm;28026;48.562;14.440;2023-03-17T14:29:41;42.50;37.32;60.84;;
37223;Laerm;28026;48.562;14.440;2023-03-17T14:32:17;46.98;37.32;70.05;;
37223;Laerm;28026;48.562;14.440;2023-03-17T14:34:58;46.46;35.36;65.62;;
37223;Laerm;28026;48.562;14.440;2023-03-17T14:37:29;46.42;35.04;70.01;;
37223;Laerm;28026;48.562;14.440;2023-03-17T14:40:00;46.44;34.31;67.31;;
37223;Laerm;28026;48.562;14.440;2023-03-17T14:42:31;75.95;35.94;89.49;;
37223;Laerm;28026;48.562;14.440;2023-03-17T14:45:18;64.07;34.31;87.54;;
37223;Laerm;28026;48.562;14.440;2023-03-17T14:47:49;51.37;35.04;79.43;;
37223;Laerm;28026;48.562;14.440;2023-03-17T14:50:30;52.02;35.66;80.09;;
37223;Laerm;28026;48.562;14.440;2023-03-17T14:53:02;49.90;37.70;75.84;;
37223;Laerm;28026;48.562;14.440;2023-03-17T14:55:40;49.82;35.66;71.59;;
37223;Laerm;28026;48.562;14.440;2023-03-17T14:58:30;50.90;36.69;78.43;;
37223;Laerm;28026;48.562;14.440;2023-03-17T15:01:14;50.15;38.67;71.60;;
37223;Laerm;28026;48.562;14.440;2023-03-17T15:04:06;50.72;35.66;77.30;;
37223;Laerm;28026;48.562;14.440;2023-03-17T15:07:01;49.67;35.36;76.78;;
37223;Laerm;28026;48.562;14.440;2023-03-17T15:12:21;59.25;34.69;78.88;;
37223;Laerm;28026;48.562;14.440;2023-03-17T15:15:00;56.74;35.94;82.81;;
37223;Laerm;28026;48.562;14.440;2023-03-17T15:17:35;55.04;37.12;81.71;;
37223;Laerm;28026;48.562;14.440;2023-03-17T15:20:16;51.28;35.94;74.60;;
37223;Laerm;28026;48.562;14.440;2023-03-17T15:23:02;54.51;37.88;79.69;;
37223;Laerm;28026;48.562;14.440;2023-03-17T15:25:40;43.08;37.32;65.84;;
37223;Laerm;28026;48.562;14.440;2023-03-17T15:28:16;51.00;36.91;76.14;;
37223;Laerm;28026;48.562;14.440;2023-03-17T15:30:55;45.89;36.45;70.75;;
37223;Laerm;28026;48.562;14.440;2023-03-17T15:36:00;44.91;35.94;75.22;;
37223;Laerm;28026;48.562;14.440;2023-03-17T15:38:32;45.28;39.92;69.12;;
37223;Laerm;28026;48.562;14.440;2023-03-17T15:41:03;45.78;40.80;68.10;;